Kaohsiung International Airport
RCKH : now visible

Airfield :











YOU CAN JOIN US ON...

 
LOGIN :

Register | Disclaimer

   EN    FR    IT 

 









Legend :    VFR   Marginal VFR   IFR   Intensive IFR   Very Intensive IFR
Visi :
Ceiling :
>= 8 km
>= 3000ft
5 to 8 km
1000 to 3000 ft
1500m to 5 km
500 to 1000 ft
800 to 1500m
200 to 500 ft
< 800m
< 200 ft
Symbols :   Thunderstorms  Fog  Heavy snow  Heavy precipitations  Wind > 20 kt






- Airport Elevation : 31 ft
- IATA code : KHH


RCKH - Kaohsiung International

CURRENT METAR :
  • 160900Z 30004KT 250V040 9000 FEW015 SCT042 BKN060 27/20 Q1014 NOSIG RMK A2996

EXPIRED METARs :
  • 160830Z 28008KT 250V310 9000 FEW015 SCT040 BKN060 27/19 Q1014 NOSIG RMK A2995
  • 160800Z 27008KT 240V310 9000 FEW015 SCT040 BKN060 28/20 Q1014 NOSIG RMK A2995
  • 160745Z 26009KT 210V290 9000 FEW015 SCT040 BKN060 27/20 Q1014 NOSIG RMK A2995
  • 160730Z 25010KT 230V290 9000 FEW015 SCT040 BKN060 28/20 Q1014 NOSIG RMK 26008KT/R09 A2995
  • 160700Z 26010KT 230V290 8000 FEW017 BKN220 29/21 Q1014 NOSIG RMK 26009KT/R09 A2995
  • 160630Z 25011KT 220V280 8000 FEW017 SCT220 28/21 Q1014 NOSIG RMK 25010KT/R09 A2996

TAF TAF RCKH
Valid from the 16 at 06:00 until the 17 at 12:00 UTC


160500Z 1606/1712 22005KT 8000 FEW018
TEMPO 1606/1611 26010KT
BECMG 1616/1618 36005KT
TEMPO 1618/1702 07005KT 4000 BR
TEMPO 1702/1707 28008KT



MET'MAP, your aeronautical weather chart ! - Copyright ORBIFLY December 2007 - Disclaimer

ORBIFLY MET'MAP TEAM :

Programming & Development : Alexandra Zaïnal
Concept & Development : Baudouin d'Aumeries
Co-Development & Prog : Marc-Olivier Méhu
Technical & hardware support : Manuel Goepfert

Contact : metmap@orbifly.com




SOURCES & CREDITS :

   NOAA       Earth
Advisory